createdAt,value
2024-04-13T00:00:27.745Z,2.00
2024-04-13T00:06:35.863Z,1.80
2024-04-13T00:09:05.048Z,1.92
2024-04-13T00:11:43.191Z,1.60
2024-04-13T00:14:09.940Z,1.42
2024-04-13T00:16:36.724Z,1.58
2024-04-13T00:19:03.542Z,1.67
2024-04-13T00:21:30.481Z,1.45
2024-04-13T00:23:57.306Z,1.70
2024-04-13T00:26:53.979Z,1.52
2024-04-13T00:29:20.819Z,1.88
2024-04-13T00:31:50.608Z,1.50
2024-04-13T00:34:17.360Z,1.70
2024-04-13T00:36:45.149Z,1.65
2024-04-13T00:39:12.887Z,2.10
2024-04-13T00:45:44.072Z,2.08
2024-04-13T00:51:53.817Z,2.03
2024-04-13T00:54:25.002Z,1.80
2024-04-13T00:56:54.624Z,1.65
2024-04-13T00:59:26.318Z,2.00
2024-04-13T01:05:40.402Z,1.60
2024-04-13T01:08:07.092Z,1.55
2024-04-13T01:10:33.907Z,1.92
2024-04-13T01:13:00.673Z,2.00
2024-04-13T01:15:29.371Z,2.15
2024-04-13T01:17:56.181Z,2.20
2024-04-13T01:21:14.162Z,3.17
2024-04-13T01:23:45.911Z,6.03
2024-04-13T01:28:48.456Z,2.85
2024-04-13T01:31:21.759Z,2.40
2024-04-13T01:33:48.585Z,2.13
2024-04-13T01:36:18.490Z,2.58
2024-04-13T01:38:45.620Z,2.15
2024-04-13T01:41:12.327Z,1.73
2024-04-13T01:43:39.052Z,2.03
2024-04-13T01:46:07.037Z,1.77
2024-04-13T01:48:41.008Z,1.77
2024-04-13T01:51:07.823Z,1.60
2024-04-13T01:53:34.551Z,1.80
2024-04-13T01:56:01.320Z,2.05
2024-04-13T01:58:28.428Z,1.92
2024-04-13T02:01:05.404Z,1.83
2024-04-13T02:03:32.119Z,1.92
2024-04-13T02:06:04.472Z,1.92
2024-04-13T02:08:34.251Z,2.22
2024-04-13T02:11:01.945Z,1.88
2024-04-13T02:13:31.421Z,2.00
2024-04-13T02:15:58.087Z,1.90
2024-04-13T02:18:27.165Z,1.90
2024-04-13T02:20:54.056Z,1.98
2024-04-13T02:23:20.843Z,2.08
2024-04-13T02:25:48.166Z,2.20
2024-04-13T02:28:15.614Z,2.00
2024-04-13T02:30:43.101Z,1.90
2024-04-13T02:33:10.139Z,1.92
2024-04-13T02:35:39.439Z,1.70
2024-04-13T02:38:06.189Z,2.00
2024-04-13T02:40:33.317Z,2.03
2024-04-13T02:43:02.137Z,1.73
2024-04-13T02:45:28.768Z,2.00
2024-04-13T02:47:55.769Z,2.00
2024-04-13T02:50:22.651Z,2.10
2024-04-13T02:52:49.896Z,2.25
2024-04-13T02:55:16.826Z,2.10
2024-04-13T02:57:45.122Z,1.98
2024-04-13T03:00:13.449Z,2.20
2024-04-13T03:02:40.346Z,2.30
2024-04-13T03:05:24.284Z,2.05
2024-04-13T03:07:50.999Z,2.15
2024-04-13T03:10:17.787Z,1.98
2024-04-13T03:12:44.469Z,1.90
2024-04-13T03:15:14.122Z,2.45
2024-04-13T03:17:41.393Z,2.00
2024-04-13T03:20:33.995Z,2.08
2024-04-13T03:23:00.672Z,2.20
2024-04-13T03:25:29.973Z,2.35
2024-04-13T03:27:57.230Z,2.10
2024-04-13T03:30:25.312Z,2.20
2024-04-13T03:32:52.150Z,2.17
2024-04-13T03:35:18.880Z,2.22
2024-04-13T03:37:48.776Z,2.35
2024-04-13T03:40:15.723Z,2.08
2024-04-13T03:42:45.668Z,2.75
2024-04-13T03:45:12.459Z,2.70
2024-04-13T03:47:39.447Z,2.55
2024-04-13T03:50:07.778Z,2.10
2024-04-13T03:52:34.766Z,2.63
2024-04-13T03:55:01.482Z,2.40
2024-04-13T03:57:28.242Z,2.40
2024-04-13T03:59:56.112Z,2.35
2024-04-13T04:02:22.944Z,2.08
2024-04-13T04:04:49.542Z,2.47
2024-04-13T04:07:16.288Z,2.38
2024-04-13T04:09:43.066Z,2.33
2024-04-13T04:12:10.863Z,2.20
2024-04-13T04:14:40.207Z,2.13
2024-04-13T04:17:09.111Z,2.20
2024-04-13T04:19:37.023Z,2.20
2024-04-13T04:22:03.769Z,2.10
2024-04-13T04:24:31.044Z,1.88
2024-04-13T04:26:57.793Z,2.30
2024-04-13T04:29:24.516Z,1.85
2024-04-13T04:31:51.444Z,2.00
2024-04-13T04:34:18.303Z,2.08
2024-04-13T04:36:45.079Z,1.67
2024-04-13T04:39:11.945Z,2.50
2024-04-13T04:41:47.028Z,2.08
2024-04-13T04:44:14.795Z,2.70
2024-04-13T04:46:43.503Z,2.13
2024-04-13T04:49:11.909Z,2.53
2024-04-13T04:51:40.279Z,1.95
2024-04-13T04:54:06.993Z,2.00
2024-04-13T04:56:33.875Z,2.35
2024-04-13T04:59:00.859Z,2.55
2024-04-13T05:01:38.821Z,2.20
2024-04-13T05:04:10.874Z,2.35
2024-04-13T05:06:37.731Z,2.25
2024-04-13T05:09:06.459Z,3.25
2024-04-13T05:11:35.410Z,2.25
2024-04-13T05:14:02.109Z,2.72
2024-04-13T05:16:28.820Z,2.00
2024-04-13T05:18:56.709Z,2.20
2024-04-13T05:21:23.442Z,2.63
2024-04-13T05:23:50.200Z,2.17
2024-04-13T05:26:16.831Z,2.20
2024-04-13T05:28:43.654Z,2.67
2024-04-13T05:31:10.958Z,1.98
2024-04-13T05:33:38.049Z,2.25
2024-04-13T05:36:05.705Z,2.55
2024-04-13T05:38:33.018Z,2.70
2024-04-13T05:41:01.065Z,2.70
2024-04-13T05:43:27.795Z,2.95
2024-04-13T05:45:55.109Z,2.38
2024-04-13T05:48:28.058Z,2.90
2024-04-13T05:51:00.650Z,2.40
2024-04-13T05:53:28.228Z,2.92
2024-04-13T05:55:55.967Z,2.42
2024-04-13T05:58:22.773Z,2.63
2024-04-13T06:00:49.889Z,2.97
2024-04-13T06:03:19.510Z,2.80
2024-04-13T06:05:47.334Z,2.80
2024-04-13T06:08:14.580Z,3.50
2024-04-13T06:10:42.399Z,3.00
2024-04-13T06:13:09.318Z,3.25
2024-04-13T06:15:39.210Z,3.15
2024-04-13T06:18:06.305Z,3.55
2024-04-13T06:20:45.775Z,3.70
2024-04-13T06:23:12.462Z,3.30
2024-04-13T06:25:48.970Z,3.85
2024-04-13T06:28:19.484Z,3.85
2024-04-13T06:30:55.537Z,3.63
2024-04-13T06:33:22.702Z,3.63
2024-04-13T06:35:53.102Z,3.47
2024-04-13T06:38:25.651Z,3.40
2024-04-13T06:40:54.418Z,3.42
2024-04-13T06:43:21.506Z,3.67
2024-04-13T06:45:49.040Z,3.65
2024-04-13T06:48:15.991Z,3.20
2024-04-13T06:50:53.707Z,3.38
2024-04-13T06:53:24.688Z,3.67
2024-04-13T06:55:52.115Z,3.40
2024-04-13T06:58:24.993Z,2.55
2024-04-13T07:00:59.322Z,2.80
2024-04-13T07:03:26.375Z,2.60
2024-04-13T07:06:00.350Z,2.97
2024-04-13T07:08:28.660Z,3.05
2024-04-13T07:10:56.998Z,2.90
2024-04-13T07:13:24.584Z,2.50
2024-04-13T07:15:54.865Z,2.70
2024-04-13T07:18:21.795Z,2.88
2024-04-13T07:20:56.311Z,2.97
2024-04-13T07:23:23.100Z,3.35
2024-04-13T07:26:01.394Z,2.63
2024-04-13T07:28:29.354Z,2.97
2024-04-13T07:31:01.333Z,3.45
2024-04-13T07:33:29.133Z,2.63
2024-04-13T07:35:56.075Z,2.90
2024-04-13T07:38:23.252Z,3.30
2024-04-13T07:40:50.148Z,3.40
2024-04-13T07:43:16.946Z,3.38
2024-04-13T07:45:46.604Z,3.47
2024-04-13T07:48:13.649Z,3.00
2024-04-13T07:50:41.469Z,3.00
2024-04-13T07:53:10.262Z,3.00
2024-04-13T07:55:37.301Z,2.97
2024-04-13T07:58:04.201Z,3.30
2024-04-13T08:00:30.896Z,2.40
2024-04-13T08:03:05.538Z,3.10
2024-04-13T08:05:32.317Z,2.72
2024-04-13T08:07:59.048Z,2.50
2024-04-13T08:10:25.924Z,2.67
2024-04-13T08:12:52.712Z,2.90
2024-04-13T08:15:19.471Z,2.40
2024-04-13T08:17:46.319Z,2.85
2024-04-13T08:20:19.331Z,2.88
2024-04-13T08:22:46.287Z,2.92
2024-04-13T08:25:13.270Z,2.63
2024-04-13T08:27:40.174Z,2.63
2024-04-13T08:30:08.464Z,2.75
2024-04-13T08:32:35.224Z,2.70
2024-04-13T08:35:01.947Z,2.50
2024-04-13T08:37:28.784Z,2.63
2024-04-13T08:39:55.625Z,2.80
2024-04-13T08:42:39.493Z,2.70
2024-04-13T08:45:10.704Z,2.63
2024-04-13T08:47:40.221Z,2.90
2024-04-13T08:50:11.880Z,3.05
2024-04-13T08:52:40.657Z,3.47
2024-04-13T08:55:07.992Z,2.80
2024-04-13T08:57:39.213Z,2.90
2024-04-13T09:02:59.803Z,2.67
2024-04-13T09:05:26.868Z,3.38
2024-04-13T09:07:56.847Z,2.50
2024-04-13T09:10:23.786Z,2.65
2024-04-13T09:12:50.746Z,3.00
2024-04-13T09:15:20.182Z,3.20
2024-04-13T09:17:47.137Z,3.03
2024-04-13T09:20:15.311Z,2.97
2024-04-13T09:22:41.978Z,2.80
2024-04-13T09:25:09.680Z,3.08
2024-04-13T09:28:05.339Z,2.80
2024-04-13T09:30:32.734Z,2.72
2024-04-13T09:33:08.103Z,2.95
2024-04-13T09:35:36.127Z,2.60
2024-04-13T09:38:03.070Z,2.55
2024-04-13T09:40:32.903Z,3.50
2024-04-13T09:43:02.506Z,2.88
2024-04-13T09:45:29.295Z,3.13
2024-04-13T09:48:00.428Z,2.45
2024-04-13T09:53:02.001Z,3.35
2024-04-13T09:55:30.445Z,2.72
2024-04-13T09:57:59.221Z,2.70
2024-04-13T10:00:26.939Z,2.35
2024-04-13T10:02:53.892Z,2.95
2024-04-13T10:05:21.580Z,2.63
2024-04-13T10:07:51.198Z,2.53
2024-04-13T10:10:19.346Z,2.30
2024-04-13T10:12:49.441Z,2.30
2024-04-13T10:15:17.457Z,3.00
2024-04-13T10:17:45.522Z,2.42
2024-04-13T10:20:12.226Z,2.30
2024-04-13T10:22:39.524Z,2.47
2024-04-13T10:25:09.128Z,2.53
2024-04-13T10:27:36.684Z,2.80
2024-04-13T10:30:04.749Z,2.35
2024-04-13T10:32:32.406Z,1.98
2024-04-13T10:35:15.849Z,2.30
2024-04-13T10:37:42.770Z,3.00
2024-04-13T10:40:09.832Z,2.50
2024-04-13T10:42:44.333Z,2.70
2024-04-13T10:45:22.297Z,2.35
2024-04-13T10:47:49.469Z,3.00
2024-04-13T10:50:20.154Z,2.50
2024-04-13T10:52:47.454Z,2.30
2024-04-13T10:55:22.663Z,2.50
2024-04-13T10:57:51.411Z,2.13
2024-04-13T11:00:27.630Z,2.05
2024-04-13T11:02:55.505Z,2.00
2024-04-13T11:05:22.888Z,2.35
2024-04-13T11:07:52.681Z,2.08
2024-04-13T11:10:20.908Z,2.00
2024-04-13T11:12:50.332Z,2.15
2024-04-13T11:15:18.469Z,2.13
2024-04-13T11:17:45.761Z,1.80
2024-04-13T11:20:12.606Z,1.73
2024-04-13T11:22:40.459Z,1.77
2024-04-13T11:25:09.411Z,1.90
2024-04-13T11:27:38.336Z,1.95
2024-04-13T11:30:05.604Z,1.90
2024-04-13T11:32:32.779Z,6.60
2024-04-13T11:34:59.644Z,4.07
2024-04-13T11:37:26.416Z,2.95
2024-04-13T11:39:53.524Z,2.47
2024-04-13T11:42:24.316Z,2.22
2024-04-13T11:44:54.817Z,2.33
2024-04-13T11:47:22.717Z,1.65
2024-04-13T11:49:49.641Z,1.40
2024-04-13T11:52:19.240Z,1.40
2024-04-13T11:54:48.326Z,1.40
2024-04-13T11:57:15.317Z,1.58
2024-04-13T11:59:49.414Z,1.85
2024-04-13T12:02:16.421Z,1.55
2024-04-13T12:04:43.196Z,1.83
2024-04-13T12:07:13.594Z,1.70
2024-04-13T12:09:40.393Z,1.55
2024-04-13T12:12:13.841Z,1.70
2024-04-13T12:14:47.189Z,1.60
2024-04-13T12:17:26.802Z,1.48
2024-04-13T12:19:53.636Z,1.30
2024-04-13T12:22:20.359Z,1.45
2024-04-13T12:24:47.378Z,1.30
2024-04-13T12:27:14.429Z,1.40
2024-04-13T12:29:44.381Z,1.38
2024-04-13T12:32:11.138Z,1.30
2024-04-13T12:34:40.104Z,1.38
2024-04-13T12:37:07.160Z,1.40
2024-04-13T12:39:46.324Z,1.73
2024-04-13T12:42:13.214Z,1.60
2024-04-13T12:44:39.941Z,1.70
2024-04-13T12:47:15.663Z,1.40
2024-04-13T12:49:42.877Z,1.75
2024-04-13T12:52:10.674Z,1.85
2024-04-13T12:54:38.197Z,1.65
2024-04-13T12:57:07.450Z,1.80
2024-04-13T12:59:34.234Z,1.70
2024-04-13T13:02:01.608Z,1.20
2024-04-13T13:04:28.460Z,1.10
2024-04-13T13:06:55.638Z,1.10
2024-04-13T13:09:23.131Z,1.17
2024-04-13T13:11:49.885Z,1.05
2024-04-13T13:14:16.860Z,1.17
2024-04-13T13:16:43.600Z,1.20
2024-04-13T13:19:10.444Z,1.35
2024-04-13T13:21:40.394Z,1.30
2024-04-13T13:24:07.726Z,1.25
2024-04-13T13:26:34.458Z,1.25
2024-04-13T13:29:04.239Z,1.38
2024-04-13T13:31:33.255Z,1.50
2024-04-13T13:34:00.256Z,1.20
2024-04-13T13:36:27.816Z,1.30
2024-04-13T13:38:54.610Z,1.30
2024-04-13T13:41:21.258Z,1.20
2024-04-13T13:43:47.967Z,1.30
2024-04-13T13:46:14.756Z,1.50
2024-04-13T13:49:01.605Z,1.33
2024-04-13T13:51:32.573Z,1.30
2024-04-13T13:53:59.404Z,1.38
2024-04-13T13:56:26.632Z,1.40
2024-04-13T13:59:04.872Z,1.30
2024-04-13T14:01:33.800Z,1.30
2024-04-13T14:04:09.367Z,1.50
2024-04-13T14:06:47.989Z,1.50
2024-04-13T14:09:15.081Z,1.00
2024-04-13T14:11:42.338Z,1.52
2024-04-13T14:14:09.608Z,1.17
2024-04-13T14:16:36.481Z,1.45
2024-04-13T14:19:03.674Z,1.45
2024-04-13T14:21:31.724Z,1.27
2024-04-13T14:23:58.602Z,1.75
2024-04-13T14:26:25.585Z,1.30
2024-04-13T14:28:52.287Z,1.60
2024-04-13T14:31:20.428Z,1.20
2024-04-13T14:33:47.313Z,1.40
2024-04-13T14:36:14.794Z,1.35
2024-04-13T14:38:41.743Z,1.83
2024-04-13T14:41:08.700Z,1.40
2024-04-13T14:43:35.566Z,1.40
2024-04-13T14:46:02.438Z,1.60
2024-04-13T14:48:29.420Z,1.45
2024-04-13T14:51:00.372Z,1.92
2024-04-13T14:53:27.139Z,1.40
2024-04-13T14:55:56.126Z,1.38
2024-04-13T14:58:22.991Z,1.33
2024-04-13T15:00:49.805Z,1.30
2024-04-13T15:03:16.922Z,1.38
2024-04-13T15:05:43.624Z,1.50
2024-04-13T15:08:10.383Z,1.50
2024-04-13T15:11:00.598Z,1.63
2024-04-13T15:13:27.596Z,1.38
2024-04-13T15:15:54.891Z,1.52
2024-04-13T15:18:22.150Z,1.30
2024-04-13T15:20:49.882Z,1.23
2024-04-13T15:23:17.864Z,1.20
2024-04-13T15:25:45.994Z,1.30
2024-04-13T15:28:12.717Z,1.60
2024-04-13T15:31:02.573Z,1.50
2024-04-13T15:33:29.605Z,1.50
2024-04-13T15:35:56.408Z,1.25
2024-04-13T15:38:24.306Z,1.40
2024-04-13T15:40:51.566Z,1.45
2024-04-13T15:43:19.814Z,1.38
2024-04-13T15:45:57.896Z,1.30
2024-04-13T15:48:25.975Z,1.48
2024-04-13T15:50:52.662Z,1.63
2024-04-13T15:53:20.301Z,1.50
2024-04-13T15:55:47.520Z,1.77
2024-04-13T15:58:14.775Z,1.58
2024-04-13T16:00:41.687Z,1.60
2024-04-13T16:03:09.475Z,1.50
2024-04-13T16:05:44.534Z,1.83
2024-04-13T16:08:11.292Z,1.40
2024-04-13T16:10:38.039Z,1.40
2024-04-13T16:13:04.990Z,1.50
2024-04-13T16:15:32.064Z,1.60
2024-04-13T16:17:58.795Z,1.73
2024-04-13T16:20:26.216Z,2.03
2024-04-13T16:22:53.151Z,1.50
2024-04-13T16:25:20.005Z,1.67
2024-04-13T16:27:51.157Z,1.30
2024-04-13T16:32:44.616Z,1.48
2024-04-13T16:35:11.519Z,1.55
2024-04-13T16:37:38.347Z,1.40
2024-04-13T16:40:05.418Z,1.75
2024-04-13T16:42:32.289Z,1.60
2024-04-13T16:44:58.984Z,1.33
2024-04-13T16:47:25.748Z,1.50
2024-04-13T16:49:55.697Z,1.48
2024-04-13T16:52:22.492Z,1.63
2024-04-13T16:54:49.351Z,1.67
2024-04-13T16:57:16.182Z,1.60
2024-04-13T16:59:43.019Z,1.30
2024-04-13T17:02:09.808Z,1.20
2024-04-13T17:04:36.723Z,1.45
2024-04-13T17:07:03.637Z,1.40
2024-04-13T17:09:32.467Z,1.35
2024-04-13T17:11:59.363Z,1.40
2024-04-13T17:14:26.217Z,1.50
2024-04-13T17:16:53.061Z,1.30
2024-04-13T17:19:19.898Z,1.25
2024-04-13T17:21:48.073Z,1.40
2024-04-13T17:24:14.858Z,1.20
2024-04-13T17:26:41.858Z,1.45
2024-04-13T17:29:10.739Z,1.60
2024-04-13T17:31:37.529Z,1.27
2024-04-13T17:34:04.241Z,1.15
2024-04-13T17:36:31.006Z,1.30
2024-04-13T17:38:57.800Z,1.55
2024-04-13T17:41:24.899Z,1.20
2024-04-13T17:43:51.615Z,1.40
2024-04-13T17:46:18.441Z,1.38
2024-04-13T17:48:45.179Z,1.23
2024-04-13T17:51:11.948Z,1.10
2024-04-13T17:53:38.679Z,1.10
2024-04-13T17:56:05.805Z,1.30
2024-04-13T17:58:32.591Z,1.38
2024-04-13T18:00:59.470Z,1.30
2024-04-13T18:03:26.384Z,1.25
2024-04-13T18:05:53.107Z,1.15
2024-04-13T18:08:19.936Z,1.73
2024-04-13T18:10:46.725Z,1.25
2024-04-13T18:13:13.420Z,1.10
2024-04-13T18:15:40.189Z,1.20
2024-04-13T18:18:09.434Z,1.15
2024-04-13T18:20:36.202Z,1.20
2024-04-13T18:23:03.057Z,1.23
2024-04-13T18:25:29.780Z,1.13
2024-04-13T18:27:56.682Z,1.13
2024-04-13T18:30:23.783Z,1.30
2024-04-13T18:32:50.737Z,1.10
2024-04-13T18:35:17.575Z,1.20
2024-04-13T18:37:44.404Z,1.50
2024-04-13T18:40:11.303Z,1.40
2024-04-13T18:42:38.231Z,1.40
2024-04-13T18:45:06.426Z,1.48
2024-04-13T18:47:33.341Z,1.55
2024-04-13T18:50:01.206Z,1.20
2024-04-13T18:52:31.310Z,1.20
2024-04-13T18:54:58.788Z,1.50
2024-04-13T18:57:25.512Z,1.38
2024-04-13T18:59:52.222Z,1.33
2024-04-13T19:02:19.024Z,1.30
2024-04-13T19:04:45.858Z,1.67
2024-04-13T19:07:12.687Z,1.60
2024-04-13T19:09:39.472Z,1.30
2024-04-13T19:12:06.592Z,1.38
2024-04-13T19:14:45.401Z,1.50
2024-04-13T19:17:12.149Z,1.42
2024-04-13T19:19:38.995Z,1.50
2024-04-13T19:22:06.848Z,1.15
2024-04-13T19:24:33.584Z,1.30
2024-04-13T19:27:00.962Z,1.55
2024-04-13T19:29:28.191Z,1.70
2024-04-13T19:31:54.933Z,1.60
2024-04-13T19:34:21.680Z,1.50
2024-04-13T19:36:49.214Z,1.40
2024-04-13T19:39:15.962Z,1.60
2024-04-13T19:41:44.444Z,1.50
2024-04-13T19:44:11.748Z,1.50
2024-04-13T19:46:40.502Z,1.40
2024-04-13T19:49:07.416Z,1.30
2024-04-13T19:51:35.314Z,1.73
2024-04-13T19:54:28.271Z,1.40
2024-04-13T19:56:54.999Z,1.58
2024-04-13T19:59:21.738Z,1.52
2024-04-13T20:01:56.253Z,1.67
2024-04-13T20:04:23.070Z,1.50
2024-04-13T20:06:50.002Z,1.50
2024-04-13T20:09:16.869Z,1.77
2024-04-13T20:11:43.678Z,1.70
2024-04-13T20:14:15.474Z,1.65
2024-04-13T20:17:00.581Z,1.75
2024-04-13T20:19:27.477Z,2.20
2024-04-13T20:21:56.178Z,1.55
2024-04-13T20:24:23.137Z,1.50
2024-04-13T20:26:49.987Z,1.50
2024-04-13T20:29:18.781Z,1.58
2024-04-13T20:31:45.561Z,1.60
2024-04-13T20:34:12.875Z,1.60
2024-04-13T20:36:54.831Z,1.33
2024-04-13T20:39:21.596Z,1.60
2024-04-13T20:41:49.685Z,1.75
2024-04-13T20:44:16.413Z,1.60
2024-04-13T20:46:43.414Z,1.70
2024-04-13T20:49:15.342Z,1.50
2024-04-13T20:51:42.098Z,1.40
2024-04-13T20:54:08.820Z,1.63
2024-04-13T20:56:35.541Z,1.73
2024-04-13T20:59:04.421Z,1.42
2024-04-13T21:01:32.286Z,1.75
2024-04-13T21:04:08.427Z,1.73
2024-04-13T21:06:35.920Z,1.70
2024-04-13T21:09:03.685Z,1.50
2024-04-13T21:11:30.785Z,1.60
2024-04-13T21:13:58.849Z,1.63
2024-04-13T21:16:25.736Z,1.92
2024-04-13T21:18:52.580Z,1.60
2024-04-13T21:21:21.589Z,1.70
2024-04-13T21:23:50.471Z,1.70
2024-04-13T21:26:17.321Z,1.55
2024-04-13T21:28:44.244Z,1.40
2024-04-13T21:31:11.030Z,1.90
2024-04-13T21:33:37.840Z,1.65
2024-04-13T21:36:05.424Z,1.70
2024-04-13T21:38:32.269Z,2.05
2024-04-13T21:41:00.112Z,2.00
2024-04-13T21:43:27.153Z,1.60
2024-04-13T21:45:54.384Z,2.40
2024-04-13T21:48:23.706Z,1.70
2024-04-13T21:54:56.964Z,2.35
2024-04-13T21:57:23.912Z,1.73
2024-04-13T21:59:50.702Z,1.83
2024-04-13T22:02:17.646Z,2.05
2024-04-13T22:04:44.644Z,1.60
2024-04-13T22:07:12.896Z,1.92
2024-04-13T22:09:39.651Z,1.75
2024-04-13T22:12:07.388Z,1.70
2024-04-13T22:14:39.663Z,2.00
2024-04-13T22:17:06.521Z,1.90
2024-04-13T22:19:34.710Z,1.80
2024-04-13T22:22:14.523Z,1.70
2024-04-13T22:24:41.279Z,1.77
2024-04-13T22:27:07.997Z,1.92
2024-04-13T22:29:35.325Z,1.77
2024-04-13T22:32:01.993Z,1.70
2024-04-13T22:34:54.629Z,1.90
2024-04-13T22:37:21.416Z,2.00
2024-04-13T22:39:48.280Z,1.80
2024-04-13T22:42:15.013Z,2.03
2024-04-13T22:44:41.734Z,2.05
2024-04-13T22:47:08.458Z,1.95
2024-04-13T22:49:35.368Z,2.00
2024-04-13T22:52:08.384Z,2.00
2024-04-13T22:54:35.192Z,2.63
2024-04-13T22:57:01.964Z,2.30
2024-04-13T22:59:28.722Z,2.10
2024-04-13T23:01:55.473Z,2.25
2024-04-13T23:04:22.569Z,1.83
2024-04-13T23:06:49.640Z,2.00
2024-04-13T23:09:18.521Z,2.33
2024-04-13T23:11:47.402Z,2.20
2024-04-13T23:14:14.187Z,2.17
2024-04-13T23:16:40.954Z,2.20
2024-04-13T23:19:07.796Z,1.88
2024-04-13T23:21:37.188Z,2.05
2024-04-13T23:24:04.187Z,2.50
2024-04-13T23:26:30.958Z,2.08
2024-04-13T23:28:57.710Z,2.20
2024-04-13T23:31:25.453Z,2.35
2024-04-13T23:33:52.195Z,2.30
2024-04-13T23:36:18.975Z,2.08
2024-04-13T23:38:45.945Z,2.20
2024-04-13T23:41:12.805Z,2.22
2024-04-13T23:43:39.513Z,2.10
2024-04-13T23:46:07.945Z,2.10
2024-04-13T23:48:34.758Z,2.00
2024-04-13T23:51:11.792Z,2.22
2024-04-13T23:53:41.299Z,2.50
2024-04-13T23:56:15.193Z,2.40
2024-04-13T23:58:41.878Z,2.30
